Pindi Bhattian Weather



Pindi Bhattian's Current Weather

Temprature 29.65o clear sky

clear sky

Rain: 0 %

Min Temprature29.65o
Max Temprature29.65o
Humidity60
Wind Speed1.23 m/h
Sun Rise05:36:30
Sun Set18:43:19
Current Time: 23-Aug-2019 06:12:42
Lat/Lon: 31.9, 73.27




Pindi Bhattian's Geo Location



Pindi Bhattian's Weather Forecast

Time Overall Temp Min Temp Max Temp Humidity Wind Speed Rain
23-Aug-2019 (Fri)
08:00:00 clear sky 32.290 32.287 32.290 51 3.48 m/h 0 %
11:00:00 clear sky 37.850 37.850 37.850 31 2.63 m/h 0 %
14:00:00 clear sky 41.430 41.430 41.431 20 1.48 m/h 0 %
17:00:00 clear sky 40.810 40.810 40.811 19 1.58 m/h 0 %
20:00:00 clear sky 36.650 36.650 36.650 25 2 m/h 0 %
23:00:00 clear sky 33.742 33.742 33.742 33 3.13 m/h 0 %
24-Aug-2019 (Sat)
02:00:00 clear sky 31.731 31.731 31.731 44 3.68 m/h 0 %
05:00:00 clear sky 30.255 30.255 30.255 48 2.56 m/h 0 %
08:00:00 clear sky 33.597 33.597 33.597 38 2.86 m/h 0 %
11:00:00 clear sky 39.669 39.669 39.669 23 2.05 m/h 0 %
14:00:00 clear sky 43.069 43.069 43.069 17 0.99 m/h 0 %
17:00:00 clear sky 42.123 42.123 42.123 17 2.22 m/h 0 %
20:00:00 clear sky 37.450 37.450 37.450 24 3.27 m/h 0 %
23:00:00 clear sky 34.769 34.769 34.769 34 5.62 m/h 0 %
25-Aug-2019 (Sun)
02:00:00 clear sky 32.431 32.431 32.431 42 2.87 m/h 0 %
05:00:00 clear sky 31.157 31.157 31.157 34 2.58 m/h 0 %
08:00:00 clear sky 34.614 34.614 34.614 32 2.14 m/h 0 %
11:00:00 clear sky 40.116 40.116 40.116 21 2.98 m/h 0 %
14:00:00 clear sky 44.050 44.050 44.050 15 1.23 m/h 0 %
17:00:00 clear sky 43.350 43.350 43.350 14 2.01 m/h 0 %
20:00:00 clear sky 37.181 37.181 37.181 31 6.56 m/h 0 %
23:00:00 clear sky 34.211 34.211 34.211 47 7.16 m/h 0 %
26-Aug-2019 (Mon)
02:00:00 clear sky 31.765 31.765 31.765 57 6.57 m/h 0 %
05:00:00 clear sky 29.850 29.850 29.850 64 4.3 m/h 0 %
08:00:00 clear sky 31.267 31.267 31.267 58 5.63 m/h 0 %
11:00:00 clear sky 37.972 37.972 37.972 35 5.49 m/h 0 %
14:00:00 clear sky 41.484 41.484 41.484 25 4.44 m/h 0 %
17:00:00 clear sky 41.420 41.420 41.420 23 3.06 m/h 0 %
20:00:00 clear sky 36.072 36.072 36.072 37 6.2 m/h 0 %
23:00:00 scattered clouds 33.814 33.814 33.814 46 5.22 m/h 0 %
27-Aug-2019 (Tue)
02:00:00 scattered clouds 32.416 32.416 32.416 52 2.95 m/h 0 %
05:00:00 scattered clouds 31.250 31.250 31.250 55 2.12 m/h 0 %
08:00:00 overcast clouds 33.835 33.835 33.835 47 2.23 m/h 0 %
11:00:00 broken clouds 39.136 39.136 39.136 32 2.07 m/h 0 %
14:00:00 broken clouds 40.836 40.836 40.836 27 2.22 m/h 0 %
17:00:00 broken clouds 39.565 39.565 39.565 30 4.09 m/h 0 %
20:00:00 broken clouds 35.950 35.950 35.950 37 2.22 m/h 0 %
23:00:00 scattered clouds 34.350 34.350 34.350 41 4.45 m/h 0 %
28-Aug-2019 (Wed)
02:00:00 clear sky 32.557 32.557 32.557 52 3.52 m/h 0 %
05:00:00 clear sky 31.472 31.472 31.472 58 1.78 m/h 0 %

Famous Cities (61)